Terminal Aerodrome Forecast
Issued by NWS Wilmington, OH

Current Version | Previous Version | Graphics & Text | Print | Product List | Glossary On
Versions: 1 2 3 4 5 6 7 8 9 10 11 12 13 14 15 16 17 18 19 20 21 22 23 24 25
063
FTUS41 KILN 221458 AAA
TAFCVG
TAF AMD
KCVG 221458Z 2215/2318 18006KT 3SM BR VCSH OVC012
     FM221600 19006KT 5SM BR OVC012
     FM221800 19005KT P6SM BKN025
     FM222000 19005KT P6SM BKN035
     FM230100 19004KT P6SM BKN025
     FM230600 20004KT 4SM BR OVC015
     FM231300 20007KT P6SM BKN025=

USA.gov is the U.S. government's official web portal to all federal, state and local government web resources and services.